Saturday, January 31, 2015
13:07 UTC
  |  Log In   |  Register Free
Airport Search:

South Big Horn County Airport
(KGEY)

South Big Horn County Airport Diagram
No Airport Diagram Available

FAA data valid effective January 08, 2015 - March 05, 2015 (unless otherwise noted).

 
 
 
 
 
 
 
 
 
 
 
 
 
 

Current Aviation Weather for South Big Horn County Airport (KGEY)

The most recent METAR observation for KGEY was updated at: 1212
METAR Summary (Translated METAR)
KGEY
311153Z AUTO 33007KT 1/2SM FZFG VV002 M03/M04 A2999 RMK AO2 SLP192 T10331044 11033 21044 55012
KU68
311155Z AUTO 25004KT 10SM CLR M06/M06 A2999 RMK AO2 PWINO
(28.3 nm NW from KGEY)
KWRL
311153Z AUTO 31003KT 1/4SM FZFG VV001 M08/M09 A2995 RMK AO2 SLP187 T10781094 11050 21083 58011
(33.8 nm SE from KGEY)
TAF Summary (Translated TAF)
KWRL
(33.8 nm SE from KGEY)
311123Z 3112/0112 VRB03KT 1/4SM FZFG VV001 FM311400 VRB04KT 3SM BR SCT001 BKN120 FM311500 31008KT P6SM SCT250 FM312100 33012KT P6SM OVC040 FM010100 33009KT 6SM -SN OVC020 FM010800 30006KT P6SM SCT020 OVC035
  Airport Weather Conditions for KGEY

Current weather conditions are
not available for GEY


The nearest NOAA weather station
is at U68, (28.3 nm NW from GEY)
  
 Current Weather at U68
25° F
Fair
West winds at 3.5 mph
U68 NOAA Radar

Pressure: 29.99 in
Humidity: 100%
Wind: West at 3.5 MPH (3 KT)
Dew Point: 24.8°F
Visibility: 10.00 mi


Airport Weather Forecast for KGEY

Translated METAR and TAF for KGEY
Translated METAR for KGEY (1308 UTC 31 January 2015)
found at http://aviationweather.gov/adds/metars/
 
METAR text: KGEY 311253Z AUTO 00000KT 1/4SM FZFG VV002 M04/M04 A2997 RMK AO2 SLP187 T10391044
Conditions at: KGEY (GREYBULL , WY, US) observed 1253 UTC 31 January 2015
Temperature: -3.9°C (25°F)
Dewpoint: -4.4°C (24°F) [RH = 96%]
Pressure (altimeter): 29.97 inches Hg (1015.0 mb)
[Sea-level pressure: 1018.7 mb]
Winds: calm
Visibility: 0.25 miles (0.40 km)
Ceiling: indefinite ceiling with vertical visibility of 200 feet AGL
Clouds: obscured sky
Weather: FZFG  (freezing fog)
Translated TAF for KGEY

There is no translated TAF available for this airport

Find All Airport Services Find A Hotel Find A Rental Car Find A Golf Course Find A Restaurant $100 Hamburger



FBO's on the Field
FBO Company Facility Photos Services Transportation Aviation Fuel Prices: Prices include tax
Catering Weather Repair Courtesy Rental Type 100LL JetA JetA+ MOGAS 8087
 
B & G Industries, LLC

This FBO has not yet been rated
FS:Independent
Last Updated: Dec-30
Login to update fuel prices
SS:
Contact B & G Industries, LLCMore FBO Information
 
South Big Horn County Airport

This FBO has not yet been rated
FS:Independent
Last Updated: Dec-30
Login to update fuel prices
SS:
Contact South Big Horn County AirportMore FBO Information
 
Add another FBO Facility Photos Catering Weather Repair Courtesy Rental Type 100LL JetA JetA+ MOGAS 8087
Services Transportation Aviation Fuel Prices: Prices include tax


model-print
model-print
model-print
model-print